»·PEaware :: EJA206 KOTH-KOLM

EJA206 :: KOTH-KOLM

FLIGHT INFORMATION

Flight Status: Arrived
Operator:
Netjets Aviation
More flights by this operator :: More flights under this callsign
Pilot: Matthew M. (27032)
Aircraft: CANADAIR CL-600 CHALLENGER
(CL60)
More flights by this aircraft type
Origin: KOTH North Bend Mun
United States
Destination: KOLM Olympia
United States
More flights between these airports :: More routes between these airports
Route: OTH7 GAMMA V27 AST V187 OLM
File this flight plan on PilotEdge
Remarks:
Altitude:
(Current/Filed)
21,000ft
Speed:
(Current/Filed)
450kts
Departed: 26-Sep-22 09:44 AM
Arrived: 26-Sep-22 10:28 AM
Distance/Time
Traveled:
221nm/0:44
Distance/Time
To Go:
Arrived

Flight Plot

Page will automatically refresh every two minutes.

Flight plan parsing failed; only flown route is shown


Map Options




Map Legend


Flown Route
Filed Route
Departure Airport
Arrival Airport
Navaid (VOR, NDB)
Fix

Horizontal Profiles

Position Reports

Time Latitude Longitude Heading Altitude Ground
Speed
26-Sep-22 09:14 43.415713 -124.245824 331 31ft 0kts
26-Sep-22 09:15 43.415713 -124.245824 331 31ft 0kts
26-Sep-22 09:16 43.415713 -124.245824 331 31ft 0kts
26-Sep-22 09:17 43.415713 -124.245824 331 31ft 0kts
26-Sep-22 09:18 43.415713 -124.245824 331 31ft 0kts
26-Sep-22 09:19 43.415713 -124.245824 331 31ft 0kts
26-Sep-22 09:20 43.415713 -124.245824 331 31ft 0kts
26-Sep-22 09:21 43.415713 -124.245824 331 31ft 0kts
26-Sep-22 09:22 43.415713 -124.245824 331 31ft 0kts
26-Sep-22 09:23 43.415713 -124.245824 331 31ft 0kts
26-Sep-22 09:24 43.415713 -124.245824 331 31ft 0kts
26-Sep-22 09:25 43.415713 -124.245824 331 31ft 0kts
26-Sep-22 09:26 43.415713 -124.245824 331 31ft 0kts
26-Sep-22 09:27 43.415713 -124.245824 331 31ft 0kts
26-Sep-22 09:28 43.415713 -124.245824 331 31ft 0kts
26-Sep-22 09:29 43.415713 -124.245824 331 31ft 0kts
26-Sep-22 09:30 43.415713 -124.245824 331 31ft 0kts
26-Sep-22 09:31 43.415713 -124.245824 331 31ft 0kts
26-Sep-22 09:32 43.415713 -124.245824 331 31ft 0kts
26-Sep-22 09:33 43.415713 -124.245824 331 31ft 0kts
26-Sep-22 09:35 43.415713 -124.245824 331 31ft 0kts
26-Sep-22 09:36 43.415713 -124.245824 331 31ft 0kts
26-Sep-22 09:37 43.415713 -124.245824 331 31ft 0kts
26-Sep-22 09:38 43.415713 -124.245824 331 31ft 0kts
26-Sep-22 09:39 43.417113 -124.245489 328 24ft 19kts
26-Sep-22 09:40 43.418095 -124.249295 241 29ft 17kts
26-Sep-22 09:41 43.415578 -124.255458 240 26ft 23kts
26-Sep-22 09:42 43.414021 -124.259973 319 11ft 0kts
26-Sep-22 09:43 43.414954 -124.260033 61 11ft 0kts
26-Sep-22 09:44 43.426682 -124.232440 50 1304ft 187kts
26-Sep-22 09:45 43.452759 -124.267323 240 6571ft 219kts
26-Sep-22 09:46 43.417143 -124.344472 238 10747ft 293kts
26-Sep-22 09:47 43.436603 -124.459710 325 13976ft 371kts
26-Sep-22 09:48 43.535083 -124.446670 44 18110ft 395kts
26-Sep-22 09:49 43.565466 -124.299785 71 20964ft 437kts
26-Sep-22 09:50 43.657359 -124.197350 15 21023ft 439kts
26-Sep-22 09:51 43.762584 -124.170960 8 21013ft 437kts
26-Sep-22 09:52 43.883819 -124.148339 7 21076ft 437kts
26-Sep-22 09:53 44.005327 -124.122292 7 21088ft 437kts
26-Sep-22 09:54 44.127014 -124.105075 5 21080ft 437kts
26-Sep-22 09:55 44.248887 -124.092114 4 21055ft 438kts
26-Sep-22 09:56 44.371557 -124.080174 4 21069ft 439kts
26-Sep-22 09:56 44.464973 -124.071263 3 21097ft 439kts
26-Sep-22 09:58 44.608019 -124.057201 4 21078ft 440kts
26-Sep-22 09:59 44.730754 -124.043558 4 21043ft 440kts
26-Sep-22 10:00 44.853438 -124.029889 4 21065ft 439kts
26-Sep-22 10:00 44.955255 -124.018505 4 21081ft 438kts
26-Sep-22 10:01 45.077801 -124.004742 4 21083ft 438kts
26-Sep-22 10:02 45.200264 -123.990934 4 21081ft 438kts
26-Sep-22 10:04 45.343143 -123.974746 4 21086ft 439kts
26-Sep-22 10:04 45.445404 -123.963114 4 21084ft 439kts
26-Sep-22 10:05 45.567758 -123.949135 4 21078ft 437kts
26-Sep-22 10:06 45.689131 -123.935204 4 21075ft 437kts
26-Sep-22 10:07 45.811727 -123.921062 4 21069ft 437kts
26-Sep-22 10:08 45.933698 -123.906952 4 21062ft 437kts
26-Sep-22 10:09 46.055183 -123.892831 4 21059ft 436kts
26-Sep-22 10:10 46.173016 -123.854098 33 20801ft 436kts
26-Sep-22 10:11 46.268333 -123.750615 38 18246ft 412kts
26-Sep-22 10:12 46.354926 -123.649663 38 16059ft 387kts
26-Sep-22 10:13 46.436148 -123.552933 39 14041ft 365kts
26-Sep-22 10:14 46.512492 -123.461253 39 12149ft 343kts
26-Sep-22 10:15 46.583978 -123.375005 39 10378ft 325kts
26-Sep-22 10:16 46.653629 -123.290648 39 9838ft 309kts
26-Sep-22 10:17 46.717837 -123.212627 40 8244ft 298kts
26-Sep-22 10:18 46.779996 -123.136847 40 6708ft 282kts
26-Sep-22 10:19 46.839544 -123.064035 40 5113ft 271kts
26-Sep-22 10:20 46.905193 -123.010324 15 4402ft 271kts
26-Sep-22 10:21 46.973862 -122.982781 15 4021ft 224kts
26-Sep-22 10:22 47.033642 -122.958748 15 2911ft 229kts
26-Sep-22 10:23 47.094089 -122.931703 37 2011ft 205kts
26-Sep-22 10:24 47.081734 -122.871614 177 2006ft 172kts
26-Sep-22 10:25 47.036122 -122.885016 190 1494ft 163kts
26-Sep-22 10:26 46.996119 -122.896652 191 602ft 130kts
26-Sep-22 10:27 46.965951 -122.905418 191 205ft 30kts
26-Sep-22 10:28 46.963525 -122.902191 51 208ft 10kts
26-Sep-22 10:29 46.969585 -122.900361 12 205ft 23kts
26-Sep-22 10:30 46.973181 -122.896803 321 205ft 19kts
26-Sep-22 10:31 46.975532 -122.898343 143 200ft 0kts
26-Sep-22 10:32 46.975532 -122.898343 143 200ft 0kts
26-Sep-22 10:33 46.975532 -122.898344 143 200ft 0kts
26-Sep-22 10:34 46.975532 -122.898344 143 200ft 0kts
26-Sep-22 10:35 46.975532 -122.898343 143 200ft 0kts
26-Sep-22 10:36 46.975532 -122.898343 143 200ft 0kts
26-Sep-22 10:37 46.975532 -122.898343 143 200ft 0kts
26-Sep-22 10:38 46.975532 -122.898343 143 200ft 0kts
26-Sep-22 10:39 46.975532 -122.898343 143 200ft 0kts
26-Sep-22 10:40 46.975532 -122.898343 143 200ft 0kts
26-Sep-22 10:41 46.975532 -122.898343 143 200ft 0kts

Navigation Log

Ident Type
Flight plan parsing failed, navigation log unavailable